createdAt,value
2022-10-06T00:02:03.911Z,100095.26
2022-10-06T00:05:06.368Z,100099.30
2022-10-06T00:08:10.268Z,100108.61
2022-10-06T00:11:13.836Z,100108.80
2022-10-06T00:14:15.651Z,100110.80
2022-10-06T00:17:17.574Z,100113.46
2022-10-06T00:20:20.173Z,100112.75
2022-10-06T00:23:22.027Z,100114.66
2022-10-06T00:26:24.431Z,100116.24
2022-10-06T00:29:26.484Z,100120.03
2022-10-06T00:32:28.186Z,100127.92
2022-10-06T00:35:33.901Z,100125.40
2022-10-06T00:38:35.949Z,100128.91
2022-10-06T00:41:39.379Z,100132.15
2022-10-06T00:44:41.716Z,100137.26
2022-10-06T00:47:43.503Z,100137.74
2022-10-06T00:50:46.057Z,100138.97
2022-10-06T00:53:48.974Z,100139.20
2022-10-06T00:56:51.084Z,100143.33
2022-10-06T00:59:53.670Z,100148.19
2022-10-06T01:03:07.708Z,100143.70
2022-10-06T01:06:09.893Z,100148.95
2022-10-06T01:09:13.897Z,100149.06
2022-10-06T01:12:16.862Z,100157.46
2022-10-06T01:15:20.074Z,100153.86
2022-10-06T01:18:23.001Z,100156.76
2022-10-06T01:21:32.803Z,100162.05
2022-10-06T01:24:35.054Z,100160.77
2022-10-06T01:27:38.435Z,100163.50
2022-10-06T01:30:53.061Z,100164.46
2022-10-06T01:33:55.858Z,100168.61
2022-10-06T01:36:57.638Z,100174.29
2022-10-06T01:39:59.416Z,100179.02
2022-10-06T01:43:01.181Z,100177.13
2022-10-06T01:46:03.035Z,100178.98
2022-10-06T01:49:04.897Z,100175.66
2022-10-06T01:52:06.909Z,100175.19
2022-10-06T01:55:09.240Z,100174.27
2022-10-06T01:58:11.773Z,100171.82
2022-10-06T02:01:13.811Z,100175.23
2022-10-06T02:04:16.424Z,100180.94
2022-10-06T02:07:19.172Z,100182.96
2022-10-06T02:10:21.104Z,100184.59
2022-10-06T02:13:28.113Z,100183.98
2022-10-06T02:16:31.609Z,100186.91
2022-10-06T02:19:33.339Z,100186.80
2022-10-06T02:22:39.868Z,100185.73
2022-10-06T02:25:41.640Z,100185.48
2022-10-06T02:28:44.944Z,100185.17
2022-10-06T02:31:47.128Z,100186.95
2022-10-06T02:34:49.958Z,100188.34
2022-10-06T02:37:51.651Z,100192.81
2022-10-06T02:40:57.745Z,100189.85
2022-10-06T02:43:59.614Z,100189.52
2022-10-06T02:47:01.349Z,100184.24
2022-10-06T02:50:06.253Z,100188.16
2022-10-06T02:53:12.648Z,100189.73
2022-10-06T02:56:17.430Z,100192.06
2022-10-06T02:59:19.263Z,100191.00
2022-10-06T03:02:21.137Z,100196.31
2022-10-06T03:05:23.306Z,100199.60
2022-10-06T03:08:25.268Z,100202.95
2022-10-06T03:11:33.171Z,100202.56
2022-10-06T03:14:35.173Z,100202.30
2022-10-06T03:17:36.906Z,100206.05
2022-10-06T03:20:38.823Z,100205.87
2022-10-06T03:23:42.634Z,100205.80
2022-10-06T03:26:47.765Z,100214.34
2022-10-06T03:29:49.776Z,100207.40
2022-10-06T03:32:52.662Z,100209.35
2022-10-06T03:36:07.179Z,100208.19
2022-10-06T03:39:09.173Z,100209.52
2022-10-06T03:42:10.985Z,100210.29
2022-10-06T03:45:12.971Z,100208.70
2022-10-06T03:48:14.772Z,100211.13
2022-10-06T03:51:27.416Z,100210.48
2022-10-06T03:54:29.195Z,100211.70
2022-10-06T03:57:31.097Z,100215.93
2022-10-06T04:00:32.936Z,100216.77
2022-10-06T04:03:35.114Z,100217.40
2022-10-06T04:06:39.171Z,100217.98
2022-10-06T04:09:41.189Z,100222.16
2022-10-06T04:12:43.003Z,100218.14
2022-10-06T04:15:46.105Z,100220.16
2022-10-06T04:18:54.020Z,100220.33
2022-10-06T04:21:56.214Z,100220.40
2022-10-06T04:24:58.030Z,100221.05
2022-10-06T04:28:00.286Z,100220.03
2022-10-06T04:31:02.223Z,100222.35
2022-10-06T04:34:06.019Z,100223.27
2022-10-06T04:37:07.785Z,100224.03
2022-10-06T04:40:09.995Z,100225.54
2022-10-06T04:43:14.930Z,100231.24
2022-10-06T04:46:41.423Z,100231.70
2022-10-06T04:49:39.759Z,100229.88
2022-10-06T04:52:41.593Z,100233.56
2022-10-06T04:55:43.298Z,100238.89
2022-10-06T04:58:46.214Z,100242.10
2022-10-06T05:01:48.206Z,100240.79
2022-10-06T05:04:50.026Z,100242.91
2022-10-06T05:07:51.782Z,100248.07
2022-10-06T05:11:00.482Z,100241.42
2022-10-06T05:14:02.641Z,100244.30
2022-10-06T05:17:04.437Z,100249.25
2022-10-06T05:20:06.783Z,100248.41
2022-10-06T05:23:08.596Z,100251.00
2022-10-06T05:26:15.819Z,100252.98
2022-10-06T05:29:17.599Z,100253.27
2022-10-06T05:32:19.415Z,100260.70
2022-10-06T05:35:21.701Z,100259.75
2022-10-06T05:38:24.330Z,100261.90
2022-10-06T05:41:29.010Z,100260.36
2022-10-06T05:44:30.830Z,100258.34
2022-10-06T05:47:32.699Z,100262.27
2022-10-06T05:50:34.506Z,100263.48
2022-10-06T05:53:37.199Z,100263.46
2022-10-06T05:56:39.221Z,100269.21
2022-10-06T05:59:41.138Z,100273.67
2022-10-06T06:02:43.364Z,100273.19
2022-10-06T06:05:46.002Z,100274.36
2022-10-06T06:08:49.135Z,100280.33
2022-10-06T06:11:53.176Z,100285.48
2022-10-06T06:15:13.325Z,100286.13
2022-10-06T06:18:15.090Z,100290.23
2022-10-06T06:21:17.141Z,100296.49
2022-10-06T06:24:19.017Z,100297.36
2022-10-06T06:27:21.137Z,100300.55
2022-10-06T06:30:24.030Z,100309.29
2022-10-06T06:33:25.842Z,100312.42
2022-10-06T06:36:32.079Z,100311.16
2022-10-06T06:39:34.068Z,100310.02
2022-10-06T06:42:35.840Z,100315.39
2022-10-06T06:45:37.705Z,100325.32
2022-10-06T06:48:39.664Z,100324.84
2022-10-06T06:51:43.573Z,100329.41
2022-10-06T06:54:46.358Z,100330.23
2022-10-06T06:57:49.724Z,100337.76
2022-10-06T07:00:51.786Z,100338.35
2022-10-06T07:03:58.307Z,100341.84
2022-10-06T07:07:00.906Z,100347.25
2022-10-06T07:10:02.761Z,100353.39
2022-10-06T07:13:06.303Z,100360.95
2022-10-06T07:16:31.297Z,100361.89
2022-10-06T07:19:51.297Z,100369.48
2022-10-06T07:23:12.141Z,100369.48
2022-10-06T07:26:13.955Z,100371.49
2022-10-06T07:29:15.791Z,100378.50
2022-10-06T07:32:21.433Z,100380.96
2022-10-06T07:35:24.543Z,100384.25
2022-10-06T07:38:27.684Z,100392.20
2022-10-06T07:41:31.157Z,100396.61
2022-10-06T07:44:32.913Z,100399.86
2022-10-06T07:47:38.277Z,100396.44
2022-10-06T07:50:41.428Z,100395.05
2022-10-06T07:53:53.702Z,100391.77
2022-10-06T07:56:56.009Z,100386.71
2022-10-06T08:00:02.090Z,100385.50
2022-10-06T08:03:05.259Z,100395.79
2022-10-06T08:06:12.622Z,100399.16
2022-10-06T08:09:14.605Z,100403.50
2022-10-06T08:12:34.894Z,100409.80
2022-10-06T08:15:36.932Z,100412.25
2022-10-06T08:18:46.551Z,100416.52
2022-10-06T08:21:48.912Z,100425.70
2022-10-06T08:25:05.366Z,100433.89
2022-10-06T08:28:08.698Z,100437.03
2022-10-06T08:31:15.773Z,100446.98
2022-10-06T08:34:18.464Z,100448.19
2022-10-06T08:37:27.496Z,100440.71
2022-10-06T08:40:29.647Z,100434.72
2022-10-06T08:43:32.648Z,100435.33
2022-10-06T08:46:40.639Z,100438.95
2022-10-06T08:49:46.062Z,100434.60
2022-10-06T08:52:59.771Z,100439.41
2022-10-06T08:56:18.156Z,100443.74
2022-10-06T08:59:20.611Z,100448.89
2022-10-06T09:02:32.534Z,100443.80
2022-10-06T09:05:35.128Z,100439.24
2022-10-06T09:08:43.826Z,100434.84
2022-10-06T09:12:04.360Z,100436.70
2022-10-06T09:15:15.064Z,100445.11
2022-10-06T09:18:23.162Z,100443.48
2022-10-06T09:21:35.415Z,100448.46
2022-10-06T09:24:47.227Z,100453.38
2022-10-06T09:27:55.527Z,100458.40
2022-10-06T09:31:01.653Z,100463.45
2022-10-06T09:34:21.839Z,100468.27
2022-10-06T09:37:24.020Z,100472.01
2022-10-06T09:40:54.373Z,100473.38
2022-10-06T09:44:02.605Z,100477.52
2022-10-06T09:47:23.774Z,100478.05
2022-10-06T09:50:27.800Z,100477.02
2022-10-06T09:53:30.877Z,100478.43
2022-10-06T09:56:36.437Z,100481.11
2022-10-06T09:59:43.061Z,100483.92
2022-10-06T10:02:45.192Z,100491.89
2022-10-06T10:05:51.703Z,100484.41
2022-10-06T10:09:24.874Z,100488.64
2022-10-06T10:12:30.981Z,100492.35
2022-10-06T10:15:54.312Z,100496.04
2022-10-06T10:18:56.187Z,100497.69
2022-10-06T10:21:58.075Z,100499.63
2022-10-06T10:25:14.058Z,100493.27
2022-10-06T10:28:38.224Z,100491.07
2022-10-06T10:31:50.289Z,100482.58
2022-10-06T10:35:06.503Z,100480.54
2022-10-06T10:38:20.964Z,100486.13
2022-10-06T10:41:30.088Z,100483.46
2022-10-06T10:44:35.345Z,100483.38
2022-10-06T10:47:39.157Z,100483.64
2022-10-06T10:50:46.759Z,100480.55
2022-10-06T10:53:52.642Z,100477.55
2022-10-06T10:56:54.540Z,100474.16
2022-10-06T11:00:00.949Z,100471.24
2022-10-06T11:03:02.942Z,100472.45
2022-10-06T11:06:25.076Z,100467.34
2022-10-06T11:10:04.930Z,100467.92
2022-10-06T11:13:22.340Z,100468.98
2022-10-06T11:16:27.251Z,100466.74
2022-10-06T11:19:42.133Z,100467.25
2022-10-06T11:22:50.687Z,100461.60
2022-10-06T11:25:56.847Z,100468.83
2022-10-06T11:29:15.986Z,100464.89
2022-10-06T11:32:29.845Z,100473.38
2022-10-06T11:35:41.381Z,100477.13
2022-10-06T11:38:49.941Z,100476.98
2022-10-06T11:42:03.579Z,100480.99
2022-10-06T11:45:14.006Z,100478.21
2022-10-06T11:48:21.260Z,100477.20
2022-10-06T11:51:26.433Z,100469.05
2022-10-06T11:54:40.481Z,100470.81
2022-10-06T11:58:23.524Z,100478.62
2022-10-06T12:01:28.271Z,100477.59
2022-10-06T12:04:30.430Z,100478.29
2022-10-06T12:07:52.422Z,100476.67
2022-10-06T12:10:55.199Z,100478.86
2022-10-06T12:15:31.794Z,100483.16
2022-10-06T12:17:25.967Z,100486.58
2022-10-06T12:20:37.103Z,100489.07
2022-10-06T12:24:02.416Z,100494.52
2022-10-06T12:27:29.515Z,100499.06
2022-10-06T12:30:34.225Z,100508.81
2022-10-06T12:33:39.028Z,100506.99
2022-10-06T12:36:44.871Z,100506.90
2022-10-06T12:39:46.935Z,100509.47
2022-10-06T12:42:48.763Z,100511.15
2022-10-06T12:45:56.848Z,100513.77
2022-10-06T12:49:05.084Z,100513.97
2022-10-06T12:52:39.436Z,100512.54
2022-10-06T12:55:48.245Z,100516.40
2022-10-06T12:58:50.147Z,100521.48
2022-10-06T13:01:55.404Z,100517.02
2022-10-06T13:05:11.013Z,100518.88
2022-10-06T13:08:34.362Z,100516.57
2022-10-06T13:11:36.343Z,100512.38
2022-10-06T13:14:38.174Z,100502.67
2022-10-06T13:17:46.823Z,100502.46
2022-10-06T13:20:51.735Z,100501.56
2022-10-06T13:23:53.492Z,100508.73
2022-10-06T13:26:56.400Z,100515.82
2022-10-06T13:30:21.335Z,100521.80
2022-10-06T13:33:24.287Z,100524.39
2022-10-06T13:36:28.260Z,100526.52
2022-10-06T13:39:32.998Z,100529.12
2022-10-06T13:42:35.030Z,100524.84
2022-10-06T13:45:41.927Z,100528.23
2022-10-06T13:48:50.053Z,100526.91
2022-10-06T13:52:01.181Z,100520.81
2022-10-06T13:55:04.858Z,100517.33
2022-10-06T13:58:10.280Z,100518.98
2022-10-06T14:01:12.247Z,100526.48
2022-10-06T14:04:14.735Z,100527.58
2022-10-06T14:07:17.179Z,100534.80
2022-10-06T14:10:21.219Z,100538.25
2022-10-06T14:13:24.144Z,100545.83
2022-10-06T14:16:26.916Z,100549.92
2022-10-06T14:19:37.458Z,100546.41
2022-10-06T14:22:39.370Z,100550.84
2022-10-06T14:25:41.111Z,100546.91
2022-10-06T14:28:53.124Z,100549.73
2022-10-06T14:31:54.910Z,100550.73
2022-10-06T14:34:56.770Z,100554.89
2022-10-06T14:37:59.139Z,100550.74
2022-10-06T14:41:03.159Z,100551.69
2022-10-06T14:44:11.564Z,100557.31
2022-10-06T14:47:13.346Z,100561.16
2022-10-06T14:50:15.644Z,100563.42
2022-10-06T14:53:17.822Z,100565.64
2022-10-06T14:56:20.266Z,100569.27
2022-10-06T14:59:22.278Z,100569.25
2022-10-06T15:02:24.143Z,100574.69
2022-10-06T15:05:26.058Z,100573.77
2022-10-06T15:08:28.216Z,100576.31
2022-10-06T15:11:30.458Z,100580.69
2022-10-06T15:14:33.680Z,100580.54
2022-10-06T15:17:35.910Z,100580.05
2022-10-06T15:20:38.397Z,100580.81
2022-10-06T15:23:40.197Z,100582.05
2022-10-06T15:27:01.409Z,100585.89
2022-10-06T15:30:03.508Z,100590.86
2022-10-06T15:33:06.214Z,100594.10
2022-10-06T15:36:16.978Z,100594.20
2022-10-06T15:39:21.165Z,100594.83
2022-10-06T15:42:24.863Z,100598.59
2022-10-06T15:45:26.709Z,100606.73
2022-10-06T15:48:28.471Z,100611.60
2022-10-06T15:51:34.347Z,100616.27
2022-10-06T15:54:40.911Z,100617.42
2022-10-06T15:57:42.625Z,100616.47
2022-10-06T16:00:44.471Z,100619.23
2022-10-06T16:03:46.493Z,100625.15
2022-10-06T16:06:54.558Z,100625.80
2022-10-06T16:09:56.386Z,100630.33
2022-10-06T16:12:58.309Z,100629.08
2022-10-06T16:16:00.546Z,100630.98
2022-10-06T16:19:02.491Z,100638.41
2022-10-06T16:22:06.171Z,100637.62
2022-10-06T16:25:08.240Z,100640.00
2022-10-06T16:28:10.306Z,100641.40
2022-10-06T16:31:12.268Z,100647.05
2022-10-06T16:34:14.277Z,100655.86
2022-10-06T16:37:16.234Z,100659.67
2022-10-06T16:40:18.113Z,100661.58
2022-10-06T16:43:19.835Z,100663.14
2022-10-06T16:46:27.928Z,100667.81
2022-10-06T16:49:29.705Z,100671.39
2022-10-06T16:52:31.596Z,100675.86
2022-10-06T16:55:33.287Z,100678.31
2022-10-06T16:58:45.551Z,100682.54
2022-10-06T17:01:48.409Z,100687.73
2022-10-06T17:04:50.516Z,100693.77
2022-10-06T17:07:56.930Z,100703.02
2022-10-06T17:11:10.702Z,100707.06
2022-10-06T17:14:13.005Z,100707.77
2022-10-06T17:17:14.883Z,100712.14
2022-10-06T17:20:16.830Z,100713.83
2022-10-06T17:23:18.629Z,100711.85
2022-10-06T17:26:22.429Z,100711.16
2022-10-06T17:29:24.538Z,100715.48
2022-10-06T17:32:26.279Z,100720.16
2022-10-06T17:35:28.187Z,100728.76
2022-10-06T17:38:31.850Z,100732.64
2022-10-06T17:41:37.378Z,100737.00
2022-10-06T17:44:39.490Z,100735.06
2022-10-06T17:47:41.686Z,100736.39
2022-10-06T17:50:43.439Z,100739.66
2022-10-06T17:53:49.223Z,100744.09
2022-10-06T17:56:53.267Z,100748.66
2022-10-06T17:59:59.096Z,100751.85
2022-10-06T18:03:00.869Z,100752.52
2022-10-06T18:06:03.895Z,100748.10
2022-10-06T18:09:06.892Z,100749.45
2022-10-06T18:12:10.605Z,100749.13
2022-10-06T18:15:12.438Z,100750.92
2022-10-06T18:18:14.382Z,100755.23
2022-10-06T18:21:17.405Z,100757.30
2022-10-06T18:24:21.712Z,100761.14
2022-10-06T18:27:24.339Z,100763.27
2022-10-06T18:30:29.388Z,100765.02
2022-10-06T18:36:53.222Z,100775.77
2022-10-06T18:39:55.360Z,100779.15
2022-10-06T18:42:57.083Z,100778.90
2022-10-06T18:46:22.534Z,100784.17
2022-10-06T18:49:25.493Z,100785.53
2022-10-06T18:52:27.467Z,100786.70
2022-10-06T18:55:29.973Z,100788.88
2022-10-06T18:58:32.368Z,100792.41
2022-10-06T19:01:35.163Z,100799.22
2022-10-06T19:04:37.325Z,100802.16
2022-10-06T19:07:39.178Z,100804.97
2022-10-06T19:11:01.000Z,100808.41
2022-10-06T19:14:02.780Z,100808.59
2022-10-06T19:17:07.265Z,100812.77
2022-10-06T19:20:10.969Z,100815.45
2022-10-06T19:23:15.059Z,100823.92
2022-10-06T19:26:16.906Z,100827.32
2022-10-06T19:29:23.934Z,100828.25
2022-10-06T19:32:28.531Z,100831.70
2022-10-06T19:35:30.550Z,100839.09
2022-10-06T19:38:32.754Z,100841.93
2022-10-06T19:41:56.995Z,100842.59
2022-10-06T19:44:58.928Z,100846.55
2022-10-06T19:48:00.868Z,100851.29
2022-10-06T19:51:14.428Z,100852.54
2022-10-06T19:54:18.414Z,100858.15
2022-10-06T19:57:20.252Z,100860.67
2022-10-06T20:00:22.001Z,100866.37
2022-10-06T20:03:51.821Z,100867.98
2022-10-06T20:06:53.900Z,100874.88
2022-10-06T20:09:55.903Z,100880.96
2022-10-06T20:12:58.783Z,100879.73
2022-10-06T20:16:02.027Z,100884.61
2022-10-06T20:19:05.607Z,100886.27
2022-10-06T20:22:07.496Z,100890.48
2022-10-06T20:25:09.575Z,100887.86
2022-10-06T20:28:11.437Z,100891.86
2022-10-06T20:31:28.310Z,100899.06
2022-10-06T20:34:32.314Z,100906.77
2022-10-06T20:37:34.312Z,100907.16
2022-10-06T20:40:49.262Z,100908.52
2022-10-06T20:43:54.052Z,100910.58
2022-10-06T20:46:55.809Z,100909.35
2022-10-06T20:49:57.515Z,100912.83
2022-10-06T20:52:59.355Z,100912.79
2022-10-06T20:56:01.743Z,100916.98
2022-10-06T20:59:07.778Z,100917.98
2022-10-06T21:02:09.901Z,100920.61
2022-10-06T21:05:11.956Z,100918.95
2022-10-06T21:08:13.668Z,100923.71
2022-10-06T21:11:17.503Z,100924.94
2022-10-06T21:14:20.053Z,100922.89
2022-10-06T21:17:21.941Z,100925.09
2022-10-06T21:20:23.679Z,100925.95
2022-10-06T21:23:25.554Z,100924.58
2022-10-06T21:26:27.945Z,100931.80
2022-10-06T21:29:29.604Z,100931.77
2022-10-06T21:32:32.223Z,100933.67
2022-10-06T21:35:33.970Z,100936.45
2022-10-06T21:38:41.914Z,100936.98
2022-10-06T21:41:43.701Z,100939.86
2022-10-06T21:44:45.469Z,100942.23
2022-10-06T21:47:47.279Z,100938.93
2022-10-06T21:50:55.195Z,100939.08
2022-10-06T21:53:57.591Z,100940.22
2022-10-06T21:56:59.353Z,100943.77
2022-10-06T22:00:01.110Z,100942.52
2022-10-06T22:03:02.909Z,100945.55
2022-10-06T22:06:06.278Z,100941.84
2022-10-06T22:09:09.617Z,100943.23
2022-10-06T22:12:11.433Z,100943.13
2022-10-06T22:15:13.174Z,100942.91
2022-10-06T22:18:17.937Z,100946.97
2022-10-06T22:21:28.488Z,100946.42
2022-10-06T22:24:30.286Z,100945.55
2022-10-06T22:27:32.440Z,100946.63
2022-10-06T22:30:34.286Z,100949.73
2022-10-06T22:33:38.157Z,100952.45
2022-10-06T22:36:40.192Z,100951.80
2022-10-06T22:39:42.024Z,100950.88
2022-10-06T22:42:43.706Z,100948.46
2022-10-06T22:45:45.618Z,100946.10
2022-10-06T22:48:47.361Z,100946.99
2022-10-06T22:51:49.161Z,100946.89
2022-10-06T22:54:51.005Z,100947.32
2022-10-06T22:57:52.690Z,100946.49
2022-10-06T23:00:54.578Z,100947.11
2022-10-06T23:03:57.088Z,100948.15
2022-10-06T23:07:18.690Z,100946.63
2022-10-06T23:10:21.581Z,100947.31
2022-10-06T23:13:23.265Z,100944.49
2022-10-06T23:16:25.342Z,100944.89
2022-10-06T23:19:27.229Z,100947.65
2022-10-06T23:22:29.023Z,100945.55
2022-10-06T23:25:30.793Z,100947.88
2022-10-06T23:28:32.700Z,100950.64
2022-10-06T23:31:34.633Z,100954.31
2022-10-06T23:34:37.229Z,100947.19
2022-10-06T23:37:39.013Z,100952.08
2022-10-06T23:40:40.718Z,100950.69
2022-10-06T23:43:42.845Z,100955.30
2022-10-06T23:46:44.935Z,100950.92
2022-10-06T23:49:49.799Z,100954.11
2022-10-06T23:52:51.516Z,100952.05
2022-10-06T23:55:53.960Z,100959.73
2022-10-06T23:58:55.605Z,100958.61
